Country
Station

 

Weather  for  Memphis, Memphis International Airport  -  United States    United States

  
-4 °C (25 °F)
    
 
 

Current METAR for Memphis, Memphis International Airport is :

KMEM 210754Z 05006KT 10SM CLR M04/M07 A3038 RMK AO2 SLP290 T10391072 $

 

This is a report for Memphis, Memphis International Airport - United States.
 
The report was made 39 minutes ago, at 07:54 UTC .
The wind was blowing at a speed of 3.1 meters per second (6.9 miles per hour) from northeast (050°).
 
The temperature was -4 °C (25 °F), with a dew-point at -7 °C (19 °F).
The temperature felt like -8 °C (17 °F).
 
The atmospheric pressure was 1029 hPa (30.38 inHg).
The relative humidity was 79.5%.
 
The sky was clear.
 
The overall visibility was 16.1 kilometers (10.0 miles).
 

 
 
 
 

Country :   A   B   C   D   E   F   G   H   I   J   K   L   M   N   O   P   Q   R   S   T   U   V   W   Y   Z

 

Site Info  |  Disclaimer  |  Credits  |  Privacy
Contact us  |  Add to favorites
© 2013-2019 METARs - All rights reserved